sensor_id;sensor_type;location;lat;lon;timestamp;P1;durP1;ratioP1;P2;durP2;ratioP2
59193;SDS011;44967;48.598;15.650;2023-12-04T00:00:07;7.00;;;3.88;;
59193;SDS011;44967;48.598;15.650;2023-12-04T00:02:33;5.72;;;3.20;;
59193;SDS011;44967;48.598;15.650;2023-12-04T00:04:58;7.22;;;3.67;;
59193;SDS011;44967;48.598;15.650;2023-12-04T00:07:24;7.00;;;3.50;;
59193;SDS011;44967;48.598;15.650;2023-12-04T00:09:49;5.43;;;3.67;;
59193;SDS011;44967;48.598;15.650;2023-12-04T00:12:15;7.13;;;3.38;;
59193;SDS011;44967;48.598;15.650;2023-12-04T00:14:41;7.63;;;3.92;;
59193;SDS011;44967;48.598;15.650;2023-12-04T00:17:07;6.85;;;3.33;;
59193;SDS011;44967;48.598;15.650;2023-12-04T00:19:32;8.35;;;3.33;;
59193;SDS011;44967;48.598;15.650;2023-12-04T00:21:58;6.57;;;3.53;;
59193;SDS011;44967;48.598;15.650;2023-12-04T00:24:24;6.78;;;3.45;;
59193;SDS011;44967;48.598;15.650;2023-12-04T00:26:50;8.60;;;3.45;;
59193;SDS011;44967;48.598;15.650;2023-12-04T00:29:15;7.35;;;3.65;;
59193;SDS011;44967;48.598;15.650;2023-12-04T00:31:41;5.57;;;3.00;;
59193;SDS011;44967;48.598;15.650;2023-12-04T00:34:07;5.28;;;3.25;;
59193;SDS011;44967;48.598;15.650;2023-12-04T00:36:32;4.85;;;3.25;;
59193;SDS011;44967;48.598;15.650;2023-12-04T00:38:58;12.02;;;5.28;;
59193;SDS011;44967;48.598;15.650;2023-12-04T00:41:23;9.00;;;5.32;;
59193;SDS011;44967;48.598;15.650;2023-12-04T00:43:49;9.52;;;3.85;;
59193;SDS011;44967;48.598;15.650;2023-12-04T00:46:15;5.38;;;3.13;;
59193;SDS011;44967;48.598;15.650;2023-12-04T00:48:40;6.55;;;4.07;;
59193;SDS011;44967;48.598;15.650;2023-12-04T00:51:06;7.03;;;3.10;;
59193;SDS011;44967;48.598;15.650;2023-12-04T00:53:32;5.93;;;3.55;;
59193;SDS011;44967;48.598;15.650;2023-12-04T00:55:58;5.03;;;3.38;;
59193;SDS011;44967;48.598;15.650;2023-12-04T00:58:24;6.15;;;3.70;;
59193;SDS011;44967;48.598;15.650;2023-12-04T01:00:49;7.47;;;3.33;;
59193;SDS011;44967;48.598;15.650;2023-12-04T01:03:17;6.38;;;3.17;;
59193;SDS011;44967;48.598;15.650;2023-12-04T01:05:43;6.10;;;2.58;;
59193;SDS011;44967;48.598;15.650;2023-12-04T01:08:09;8.32;;;3.88;;
59193;SDS011;44967;48.598;15.650;2023-12-04T01:10:35;10.77;;;5.20;;
59193;SDS011;44967;48.598;15.650;2023-12-04T01:13:00;12.52;;;6.40;;
59193;SDS011;44967;48.598;15.650;2023-12-04T01:15:26;10.20;;;5.30;;
59193;SDS011;44967;48.598;15.650;2023-12-04T01:17:52;6.95;;;4.22;;
59193;SDS011;44967;48.598;15.650;2023-12-04T01:20:17;7.82;;;3.97;;
59193;SDS011;44967;48.598;15.650;2023-12-04T01:22:43;7.78;;;4.15;;
59193;SDS011;44967;48.598;15.650;2023-12-04T01:25:09;6.03;;;2.85;;
59193;SDS011;44967;48.598;15.650;2023-12-04T01:27:35;4.53;;;2.88;;
59193;SDS011;44967;48.598;15.650;2023-12-04T01:30:03;7.35;;;3.53;;
59193;SDS011;44967;48.598;15.650;2023-12-04T01:32:31;4.57;;;3.28;;
59193;SDS011;44967;48.598;15.650;2023-12-04T01:34:56;4.47;;;3.15;;
59193;SDS011;44967;48.598;15.650;2023-12-04T01:37:22;9.02;;;3.90;;
59193;SDS011;44967;48.598;15.650;2023-12-04T01:39:48;4.75;;;3.13;;
59193;SDS011;44967;48.598;15.650;2023-12-04T01:42:14;4.97;;;3.00;;
59193;SDS011;44967;48.598;15.650;2023-12-04T01:44:40;5.53;;;2.67;;
59193;SDS011;44967;48.598;15.650;2023-12-04T01:47:05;6.25;;;3.10;;
59193;SDS011;44967;48.598;15.650;2023-12-04T01:49:32;7.18;;;3.50;;
59193;SDS011;44967;48.598;15.650;2023-12-04T01:51:58;5.13;;;3.50;;
59193;SDS011;44967;48.598;15.650;2023-12-04T01:54:24;7.72;;;4.18;;
59193;SDS011;44967;48.598;15.650;2023-12-04T01:56:50;8.88;;;4.75;;
59193;SDS011;44967;48.598;15.650;2023-12-04T01:59:16;4.53;;;3.08;;
59193;SDS011;44967;48.598;15.650;2023-12-04T02:01:42;10.30;;;5.57;;
59193;SDS011;44967;48.598;15.650;2023-12-04T02:04:08;6.18;;;3.40;;
59193;SDS011;44967;48.598;15.650;2023-12-04T02:06:34;8.48;;;2.85;;
59193;SDS011;44967;48.598;15.650;2023-12-04T02:09:00;4.47;;;2.72;;
59193;SDS011;44967;48.598;15.650;2023-12-04T02:11:26;4.93;;;3.13;;
59193;SDS011;44967;48.598;15.650;2023-12-04T02:13:53;6.55;;;3.22;;
59193;SDS011;44967;48.598;15.650;2023-12-04T02:16:18;4.65;;;2.20;;
59193;SDS011;44967;48.598;15.650;2023-12-04T02:18:48;5.22;;;3.05;;
59193;SDS011;44967;48.598;15.650;2023-12-04T02:21:13;4.57;;;2.65;;
59193;SDS011;44967;48.598;15.650;2023-12-04T02:23:39;3.97;;;2.50;;
59193;SDS011;44967;48.598;15.650;2023-12-04T02:26:08;5.10;;;2.92;;
59193;SDS011;44967;48.598;15.650;2023-12-04T02:28:36;6.70;;;3.20;;
59193;SDS011;44967;48.598;15.650;2023-12-04T02:31:04;8.27;;;3.72;;
59193;SDS011;44967;48.598;15.650;2023-12-04T02:33:31;5.65;;;3.00;;
59193;SDS011;44967;48.598;15.650;2023-12-04T02:36:00;5.03;;;2.75;;
59193;SDS011;44967;48.598;15.650;2023-12-04T02:38:27;3.95;;;2.60;;
59193;SDS011;44967;48.598;15.650;2023-12-04T02:40:54;6.32;;;3.28;;
59193;SDS011;44967;48.598;15.650;2023-12-04T02:43:20;4.93;;;2.80;;
59193;SDS011;44967;48.598;15.650;2023-12-04T02:45:46;4.53;;;2.95;;
59193;SDS011;44967;48.598;15.650;2023-12-04T02:48:12;4.55;;;2.38;;
59193;SDS011;44967;48.598;15.650;2023-12-04T02:50:38;5.97;;;2.80;;
59193;SDS011;44967;48.598;15.650;2023-12-04T02:53:03;4.72;;;2.65;;
59193;SDS011;44967;48.598;15.650;2023-12-04T02:55:29;5.43;;;3.20;;
59193;SDS011;44967;48.598;15.650;2023-12-04T02:57:55;6.00;;;2.88;;
59193;SDS011;44967;48.598;15.650;2023-12-04T03:00:20;3.97;;;2.75;;
59193;SDS011;44967;48.598;15.650;2023-12-04T03:02:46;3.85;;;2.30;;
59193;SDS011;44967;48.598;15.650;2023-12-04T03:05:12;7.03;;;2.90;;
59193;SDS011;44967;48.598;15.650;2023-12-04T03:07:38;3.10;;;2.05;;
59193;SDS011;44967;48.598;15.650;2023-12-04T03:10:04;4.65;;;2.28;;
59193;SDS011;44967;48.598;15.650;2023-12-04T03:12:30;6.30;;;2.45;;
59193;SDS011;44967;48.598;15.650;2023-12-04T03:14:56;4.65;;;2.67;;
59193;SDS011;44967;48.598;15.650;2023-12-04T03:17:21;5.55;;;2.47;;
59193;SDS011;44967;48.598;15.650;2023-12-04T03:19:47;6.72;;;3.15;;
59193;SDS011;44967;48.598;15.650;2023-12-04T03:22:13;9.57;;;4.07;;
59193;SDS011;44967;48.598;15.650;2023-12-04T03:24:38;3.92;;;2.95;;
59193;SDS011;44967;48.598;15.650;2023-12-04T03:27:04;5.53;;;3.35;;
59193;SDS011;44967;48.598;15.650;2023-12-04T03:29:30;13.95;;;4.10;;
59193;SDS011;44967;48.598;15.650;2023-12-04T03:31:55;10.93;;;5.30;;
59193;SDS011;44967;48.598;15.650;2023-12-04T03:34:21;5.30;;;2.78;;
59193;SDS011;44967;48.598;15.650;2023-12-04T03:36:47;8.25;;;3.30;;
59193;SDS011;44967;48.598;15.650;2023-12-04T03:39:12;23.02;;;8.55;;
59193;SDS011;44967;48.598;15.650;2023-12-04T03:41:38;25.17;;;9.60;;
59193;SDS011;44967;48.598;15.650;2023-12-04T03:44:04;21.77;;;9.05;;
59193;SDS011;44967;48.598;15.650;2023-12-04T03:46:30;24.52;;;8.75;;
59193;SDS011;44967;48.598;15.650;2023-12-04T03:48:55;18.70;;;7.53;;
59193;SDS011;44967;48.598;15.650;2023-12-04T03:51:21;16.45;;;6.63;;
59193;SDS011;44967;48.598;15.650;2023-12-04T03:53:47;16.98;;;7.72;;
59193;SDS011;44967;48.598;15.650;2023-12-04T03:56:12;17.42;;;5.95;;
59193;SDS011;44967;48.598;15.650;2023-12-04T03:58:38;14.65;;;5.65;;
59193;SDS011;44967;48.598;15.650;2023-12-04T04:01:04;11.15;;;4.63;;
59193;SDS011;44967;48.598;15.650;2023-12-04T04:03:30;9.75;;;4.55;;
59193;SDS011;44967;48.598;15.650;2023-12-04T04:05:56;7.78;;;4.07;;
59193;SDS011;44967;48.598;15.650;2023-12-04T04:08:22;5.13;;;3.08;;
59193;SDS011;44967;48.598;15.650;2023-12-04T04:10:47;9.55;;;3.53;;
59193;SDS011;44967;48.598;15.650;2023-12-04T04:13:13;4.82;;;2.75;;
59193;SDS011;44967;48.598;15.650;2023-12-04T04:15:39;5.45;;;3.05;;
59193;SDS011;44967;48.598;15.650;2023-12-04T04:18:05;3.65;;;2.47;;
59193;SDS011;44967;48.598;15.650;2023-12-04T04:20:31;5.05;;;2.42;;
59193;SDS011;44967;48.598;15.650;2023-12-04T04:22:57;3.33;;;1.98;;
59193;SDS011;44967;48.598;15.650;2023-12-04T04:25:22;2.95;;;2.00;;
59193;SDS011;44967;48.598;15.650;2023-12-04T04:27:49;4.63;;;2.50;;
59193;SDS011;44967;48.598;15.650;2023-12-04T04:30:15;6.82;;;3.20;;
59193;SDS011;44967;48.598;15.650;2023-12-04T04:32:42;4.43;;;3.05;;
59193;SDS011;44967;48.598;15.650;2023-12-04T04:35:08;3.88;;;2.22;;
59193;SDS011;44967;48.598;15.650;2023-12-04T04:37:34;7.28;;;3.28;;
59193;SDS011;44967;48.598;15.650;2023-12-04T04:40:01;4.60;;;2.47;;
59193;SDS011;44967;48.598;15.650;2023-12-04T04:42:27;6.22;;;2.58;;
59193;SDS011;44967;48.598;15.650;2023-12-04T04:44:53;6.22;;;2.67;;
59193;SDS011;44967;48.598;15.650;2023-12-04T04:47:19;4.90;;;2.50;;
59193;SDS011;44967;48.598;15.650;2023-12-04T04:49:44;6.20;;;2.80;;
59193;SDS011;44967;48.598;15.650;2023-12-04T04:52:10;5.15;;;2.70;;
59193;SDS011;44967;48.598;15.650;2023-12-04T04:54:36;5.32;;;2.28;;
59193;SDS011;44967;48.598;15.650;2023-12-04T04:57:01;3.25;;;2.15;;
59193;SDS011;44967;48.598;15.650;2023-12-04T04:59:27;5.40;;;2.38;;
59193;SDS011;44967;48.598;15.650;2023-12-04T05:01:56;3.90;;;2.15;;
59193;SDS011;44967;48.598;15.650;2023-12-04T05:04:21;7.65;;;2.75;;
59193;SDS011;44967;48.598;15.650;2023-12-04T05:06:47;4.82;;;2.40;;
59193;SDS011;44967;48.598;15.650;2023-12-04T05:09:13;8.07;;;3.17;;
59193;SDS011;44967;48.598;15.650;2023-12-04T05:11:39;6.18;;;3.58;;
59193;SDS011;44967;48.598;15.650;2023-12-04T05:14:04;6.88;;;3.97;;
59193;SDS011;44967;48.598;15.650;2023-12-04T05:16:30;11.80;;;6.07;;
59193;SDS011;44967;48.598;15.650;2023-12-04T05:18:56;12.18;;;6.82;;
59193;SDS011;44967;48.598;15.650;2023-12-04T05:21:21;10.70;;;5.13;;
59193;SDS011;44967;48.598;15.650;2023-12-04T05:23:47;8.18;;;4.22;;
59193;SDS011;44967;48.598;15.650;2023-12-04T05:26:12;4.97;;;3.38;;
59193;SDS011;44967;48.598;15.650;2023-12-04T05:28:38;4.35;;;2.20;;
59193;SDS011;44967;48.598;15.650;2023-12-04T05:31:04;3.47;;;1.95;;
59193;SDS011;44967;48.598;15.650;2023-12-04T05:33:30;4.40;;;1.70;;
59193;SDS011;44967;48.598;15.650;2023-12-04T05:35:56;4.55;;;2.17;;
59193;SDS011;44967;48.598;15.650;2023-12-04T05:38:22;5.75;;;3.25;;
59193;SDS011;44967;48.598;15.650;2023-12-04T05:40:48;5.53;;;3.22;;
59193;SDS011;44967;48.598;15.650;2023-12-04T05:43:14;6.65;;;3.40;;
59193;SDS011;44967;48.598;15.650;2023-12-04T05:45:39;5.55;;;3.63;;
59193;SDS011;44967;48.598;15.650;2023-12-04T05:48:05;5.68;;;3.28;;
59193;SDS011;44967;48.598;15.650;2023-12-04T05:50:31;4.28;;;3.38;;
59193;SDS011;44967;48.598;15.650;2023-12-04T05:52:57;6.25;;;3.08;;
59193;SDS011;44967;48.598;15.650;2023-12-04T05:55:24;7.40;;;3.20;;
59193;SDS011;44967;48.598;15.650;2023-12-04T05:57:49;4.65;;;2.75;;
59193;SDS011;44967;48.598;15.650;2023-12-04T06:00:16;14.25;;;5.45;;
59193;SDS011;44967;48.598;15.650;2023-12-04T06:02:42;13.48;;;5.60;;
59193;SDS011;44967;48.598;15.650;2023-12-04T06:05:08;7.10;;;4.40;;
59193;SDS011;44967;48.598;15.650;2023-12-04T06:07:35;7.45;;;3.72;;
59193;SDS011;44967;48.598;15.650;2023-12-04T06:10:01;4.38;;;3.10;;
59193;SDS011;44967;48.598;15.650;2023-12-04T06:12:30;4.10;;;2.60;;
59193;SDS011;44967;48.598;15.650;2023-12-04T06:14:56;3.00;;;2.47;;
59193;SDS011;44967;48.598;15.650;2023-12-04T06:17:23;6.25;;;2.97;;
59193;SDS011;44967;48.598;15.650;2023-12-04T06:19:49;4.35;;;2.75;;
59193;SDS011;44967;48.598;15.650;2023-12-04T06:22:15;5.93;;;2.53;;
59193;SDS011;44967;48.598;15.650;2023-12-04T06:24:44;4.40;;;2.58;;
59193;SDS011;44967;48.598;15.650;2023-12-04T06:27:11;7.53;;;2.25;;
59193;SDS011;44967;48.598;15.650;2023-12-04T06:32:11;4.47;;;2.38;;
59193;SDS011;44967;48.598;15.650;2023-12-04T06:34:37;6.18;;;3.42;;
59193;SDS011;44967;48.598;15.650;2023-12-04T06:37:03;6.18;;;3.80;;
59193;SDS011;44967;48.598;15.650;2023-12-04T06:39:34;9.52;;;4.05;;
59193;SDS011;44967;48.598;15.650;2023-12-04T06:42:04;8.60;;;3.90;;
59193;SDS011;44967;48.598;15.650;2023-12-04T06:44:31;14.40;;;7.43;;
59193;SDS011;44967;48.598;15.650;2023-12-04T06:46:59;18.15;;;7.72;;
59193;SDS011;44967;48.598;15.650;2023-12-04T06:49:31;19.45;;;8.55;;
59193;SDS011;44967;48.598;15.650;2023-12-04T06:51:58;14.05;;;7.85;;
59193;SDS011;44967;48.598;15.650;2023-12-04T06:54:27;19.77;;;9.70;;
59193;SDS011;44967;48.598;15.650;2023-12-04T06:56:53;20.92;;;9.00;;
59193;SDS011;44967;48.598;15.650;2023-12-04T06:59:19;20.38;;;9.57;;
59193;SDS011;44967;48.598;15.650;2023-12-04T07:01:45;12.25;;;7.25;;
59193;SDS011;44967;48.598;15.650;2023-12-04T07:04:11;11.48;;;5.57;;
59193;SDS011;44967;48.598;15.650;2023-12-04T07:06:38;12.30;;;6.30;;
59193;SDS011;44967;48.598;15.650;2023-12-04T07:09:05;12.43;;;6.30;;
59193;SDS011;44967;48.598;15.650;2023-12-04T07:11:34;13.00;;;6.80;;
59193;SDS011;44967;48.598;15.650;2023-12-04T07:14:00;14.68;;;6.95;;
59193;SDS011;44967;48.598;15.650;2023-12-04T07:16:25;12.38;;;6.13;;
59193;SDS011;44967;48.598;15.650;2023-12-04T07:18:51;17.77;;;7.40;;
59193;SDS011;44967;48.598;15.650;2023-12-04T07:21:17;17.05;;;7.90;;
59193;SDS011;44967;48.598;15.650;2023-12-04T07:23:43;14.65;;;6.78;;
59193;SDS011;44967;48.598;15.650;2023-12-04T07:26:08;17.13;;;7.90;;
59193;SDS011;44967;48.598;15.650;2023-12-04T07:28:34;16.70;;;7.75;;
59193;SDS011;44967;48.598;15.650;2023-12-04T07:31:00;19.90;;;9.57;;
59193;SDS011;44967;48.598;15.650;2023-12-04T07:33:29;21.00;;;10.25;;
59193;SDS011;44967;48.598;15.650;2023-12-04T07:35:54;15.95;;;8.63;;
59193;SDS011;44967;48.598;15.650;2023-12-04T07:38:20;17.75;;;9.63;;
59193;SDS011;44967;48.598;15.650;2023-12-04T07:40:46;20.83;;;8.95;;
59193;SDS011;44967;48.598;15.650;2023-12-04T07:43:12;20.30;;;10.50;;
59193;SDS011;44967;48.598;15.650;2023-12-04T07:45:40;76.13;;;27.98;;
59193;SDS011;44967;48.598;15.650;2023-12-04T07:48:06;24.92;;;9.77;;
59193;SDS011;44967;48.598;15.650;2023-12-04T07:50:32;15.52;;;8.68;;
59193;SDS011;44967;48.598;15.650;2023-12-04T07:52:58;16.90;;;8.68;;
59193;SDS011;44967;48.598;15.650;2023-12-04T07:55:24;15.20;;;7.88;;
59193;SDS011;44967;48.598;15.650;2023-12-04T07:57:50;21.17;;;10.25;;
59193;SDS011;44967;48.598;15.650;2023-12-04T08:00:16;18.88;;;10.82;;
59193;SDS011;44967;48.598;15.650;2023-12-04T08:02:48;22.05;;;12.00;;
59193;SDS011;44967;48.598;15.650;2023-12-04T08:05:13;27.88;;;13.27;;
59193;SDS011;44967;48.598;15.650;2023-12-04T08:07:39;32.53;;;13.73;;
59193;SDS011;44967;48.598;15.650;2023-12-04T08:10:06;42.58;;;17.23;;
59193;SDS011;44967;48.598;15.650;2023-12-04T08:12:32;27.92;;;13.52;;
59193;SDS011;44967;48.598;15.650;2023-12-04T08:14:59;36.67;;;13.80;;
59193;SDS011;44967;48.598;15.650;2023-12-04T08:17:25;33.50;;;13.32;;
59193;SDS011;44967;48.598;15.650;2023-12-04T08:19:51;31.85;;;13.63;;
59193;SDS011;44967;48.598;15.650;2023-12-04T08:22:16;35.13;;;12.85;;
59193;SDS011;44967;48.598;15.650;2023-12-04T08:24:42;28.60;;;13.23;;
59193;SDS011;44967;48.598;15.650;2023-12-04T08:27:07;27.27;;;12.57;;
59193;SDS011;44967;48.598;15.650;2023-12-04T08:29:33;33.60;;;13.60;;
59193;SDS011;44967;48.598;15.650;2023-12-04T08:32:00;39.00;;;15.77;;
59193;SDS011;44967;48.598;15.650;2023-12-04T08:34:25;38.45;;;15.73;;
59193;SDS011;44967;48.598;15.650;2023-12-04T08:36:51;35.00;;;16.25;;
59193;SDS011;44967;48.598;15.650;2023-12-04T08:39:17;51.28;;;18.58;;
59193;SDS011;44967;48.598;15.650;2023-12-04T08:41:45;40.75;;;14.95;;
59193;SDS011;44967;48.598;15.650;2023-12-04T08:44:13;34.40;;;16.50;;
59193;SDS011;44967;48.598;15.650;2023-12-04T08:46:39;33.67;;;16.17;;
59193;SDS011;44967;48.598;15.650;2023-12-04T08:49:05;25.35;;;13.73;;
59193;SDS011;44967;48.598;15.650;2023-12-04T08:51:31;30.02;;;16.15;;
59193;SDS011;44967;48.598;15.650;2023-12-04T08:53:57;29.63;;;14.43;;
59193;SDS011;44967;48.598;15.650;2023-12-04T08:56:22;28.85;;;13.80;;
59193;SDS011;44967;48.598;15.650;2023-12-04T08:58:48;28.33;;;14.65;;
59193;SDS011;44967;48.598;15.650;2023-12-04T09:01:15;27.25;;;12.90;;
59193;SDS011;44967;48.598;15.650;2023-12-04T09:03:41;26.60;;;13.38;;
59193;SDS011;44967;48.598;15.650;2023-12-04T09:06:07;23.70;;;13.02;;
59193;SDS011;44967;48.598;15.650;2023-12-04T09:08:32;26.73;;;13.43;;
59193;SDS011;44967;48.598;15.650;2023-12-04T09:10:58;27.58;;;14.52;;
59193;SDS011;44967;48.598;15.650;2023-12-04T09:13:24;35.28;;;14.93;;
59193;SDS011;44967;48.598;15.650;2023-12-04T09:15:49;31.45;;;14.27;;
59193;SDS011;44967;48.598;15.650;2023-12-04T09:18:15;31.90;;;16.15;;
59193;SDS011;44967;48.598;15.650;2023-12-04T09:20:41;27.50;;;14.90;;
59193;SDS011;44967;48.598;15.650;2023-12-04T09:23:07;30.40;;;14.55;;
59193;SDS011;44967;48.598;15.650;2023-12-04T09:25:32;30.45;;;15.55;;
59193;SDS011;44967;48.598;15.650;2023-12-04T09:27:58;29.88;;;15.70;;
59193;SDS011;44967;48.598;15.650;2023-12-04T09:30:23;27.73;;;14.45;;
59193;SDS011;44967;48.598;15.650;2023-12-04T09:32:49;34.58;;;16.65;;
59193;SDS011;44967;48.598;15.650;2023-12-04T09:35:14;27.90;;;15.88;;
59193;SDS011;44967;48.598;15.650;2023-12-04T09:37:40;37.15;;;17.27;;
59193;SDS011;44967;48.598;15.650;2023-12-04T09:40:06;29.05;;;16.15;;
59193;SDS011;44967;48.598;15.650;2023-12-04T09:42:33;34.47;;;15.35;;
59193;SDS011;44967;48.598;15.650;2023-12-04T09:44:59;27.48;;;12.70;;
59193;SDS011;44967;48.598;15.650;2023-12-04T09:47:26;34.03;;;16.92;;
59193;SDS011;44967;48.598;15.650;2023-12-04T09:49:52;27.50;;;15.95;;
59193;SDS011;44967;48.598;15.650;2023-12-04T09:52:19;32.92;;;16.05;;
59193;SDS011;44967;48.598;15.650;2023-12-04T09:54:45;22.70;;;11.65;;
59193;SDS011;44967;48.598;15.650;2023-12-04T09:57:11;35.85;;;19.20;;
59193;SDS011;44967;48.598;15.650;2023-12-04T09:59:38;23.52;;;12.82;;
59193;SDS011;44967;48.598;15.650;2023-12-04T10:02:04;30.20;;;13.32;;
59193;SDS011;44967;48.598;15.650;2023-12-04T10:04:31;23.92;;;12.40;;
59193;SDS011;44967;48.598;15.650;2023-12-04T10:06:59;25.83;;;12.93;;
59193;SDS011;44967;48.598;15.650;2023-12-04T10:09:24;26.95;;;12.10;;
59193;SDS011;44967;48.598;15.650;2023-12-04T10:11:50;33.00;;;14.55;;
59193;SDS011;44967;48.598;15.650;2023-12-04T10:14:19;21.63;;;10.95;;
59193;SDS011;44967;48.598;15.650;2023-12-04T10:16:46;22.98;;;10.07;;
59193;SDS011;44967;48.598;15.650;2023-12-04T10:21:47;26.85;;;13.38;;
59193;SDS011;44967;48.598;15.650;2023-12-04T10:27:06;26.55;;;12.73;;
59193;SDS011;44967;48.598;15.650;2023-12-04T10:29:44;28.08;;;12.68;;
59193;SDS011;44967;48.598;15.650;2023-12-04T10:34:38;21.38;;;11.10;;
59193;SDS011;44967;48.598;15.650;2023-12-04T10:37:08;28.90;;;13.25;;
59193;SDS011;44967;48.598;15.650;2023-12-04T10:39:45;24.92;;;12.20;;
59193;SDS011;44967;48.598;15.650;2023-12-04T10:42:28;22.33;;;11.07;;
59193;SDS011;44967;48.598;15.650;2023-12-04T10:44:55;22.95;;;12.75;;
59193;SDS011;44967;48.598;15.650;2023-12-04T10:47:22;20.60;;;11.85;;
59193;SDS011;44967;48.598;15.650;2023-12-04T10:49:49;30.45;;;13.98;;
59193;SDS011;44967;48.598;15.650;2023-12-04T10:52:18;29.67;;;13.35;;
59193;SDS011;44967;48.598;15.650;2023-12-04T10:54:47;30.85;;;12.93;;
59193;SDS011;44967;48.598;15.650;2023-12-04T10:57:20;27.05;;;13.10;;
59193;SDS011;44967;48.598;15.650;2023-12-04T10:59:57;31.52;;;13.65;;
59193;SDS011;44967;48.598;15.650;2023-12-04T11:02:28;28.05;;;12.60;;
59193;SDS011;44967;48.598;15.650;2023-12-04T11:04:58;29.30;;;14.10;;
59193;SDS011;44967;48.598;15.650;2023-12-04T11:07:30;27.63;;;13.45;;
59193;SDS011;44967;48.598;15.650;2023-12-04T11:09:58;27.50;;;12.00;;
59193;SDS011;44967;48.598;15.650;2023-12-04T11:12:25;27.85;;;14.40;;
59193;SDS011;44967;48.598;15.650;2023-12-04T11:14:56;32.75;;;14.23;;
59193;SDS011;44967;48.598;15.650;2023-12-04T11:17:25;31.35;;;14.73;;
59193;SDS011;44967;48.598;15.650;2023-12-04T11:19:57;25.98;;;13.18;;
59193;SDS011;44967;48.598;15.650;2023-12-04T11:22:33;29.42;;;13.10;;
59193;SDS011;44967;48.598;15.650;2023-12-04T11:25:05;34.10;;;14.77;;
59193;SDS011;44967;48.598;15.650;2023-12-04T11:27:33;29.27;;;13.15;;
59193;SDS011;44967;48.598;15.650;2023-12-04T11:30:00;30.88;;;13.90;;
59193;SDS011;44967;48.598;15.650;2023-12-04T11:32:28;31.23;;;13.93;;
59193;SDS011;44967;48.598;15.650;2023-12-04T11:34:55;28.23;;;12.80;;
59193;SDS011;44967;48.598;15.650;2023-12-04T11:37:21;30.73;;;14.68;;
59193;SDS011;44967;48.598;15.650;2023-12-04T11:39:51;31.08;;;13.25;;
59193;SDS011;44967;48.598;15.650;2023-12-04T11:42:19;30.48;;;12.73;;
59193;SDS011;44967;48.598;15.650;2023-12-04T11:44:48;28.90;;;13.73;;
59193;SDS011;44967;48.598;15.650;2023-12-04T11:47:14;40.78;;;18.70;;
59193;SDS011;44967;48.598;15.650;2023-12-04T11:49:40;31.60;;;14.50;;
59193;SDS011;44967;48.598;15.650;2023-12-04T11:52:06;32.60;;;14.85;;
59193;SDS011;44967;48.598;15.650;2023-12-04T11:55:18;27.77;;;14.02;;
59193;SDS011;44967;48.598;15.650;2023-12-04T11:57:23;31.55;;;14.02;;
59193;SDS011;44967;48.598;15.650;2023-12-04T11:59:50;31.45;;;15.15;;
59193;SDS011;44967;48.598;15.650;2023-12-04T12:02:16;30.83;;;14.85;;
59193;SDS011;44967;48.598;15.650;2023-12-04T12:04:42;31.42;;;14.82;;
59193;SDS011;44967;48.598;15.650;2023-12-04T12:07:08;29.70;;;13.80;;
59193;SDS011;44967;48.598;15.650;2023-12-04T12:09:34;30.00;;;14.27;;
59193;SDS011;44967;48.598;15.650;2023-12-04T12:12:03;30.33;;;14.57;;
59193;SDS011;44967;48.598;15.650;2023-12-04T12:14:30;35.38;;;15.52;;
59193;SDS011;44967;48.598;15.650;2023-12-04T12:17:00;28.95;;;15.15;;
59193;SDS011;44967;48.598;15.650;2023-12-04T12:19:29;31.75;;;15.27;;
59193;SDS011;44967;48.598;15.650;2023-12-04T12:21:54;34.88;;;15.15;;
59193;SDS011;44967;48.598;15.650;2023-12-04T12:24:21;32.88;;;15.43;;
59193;SDS011;44967;48.598;15.650;2023-12-04T12:26:48;32.08;;;14.70;;
59193;SDS011;44967;48.598;15.650;2023-12-04T12:29:14;29.65;;;15.23;;
59193;SDS011;44967;48.598;15.650;2023-12-04T12:31:40;31.85;;;14.68;;
59193;SDS011;44967;48.598;15.650;2023-12-04T12:34:06;25.83;;;13.48;;
59193;SDS011;44967;48.598;15.650;2023-12-04T12:36:32;32.67;;;15.43;;
59193;SDS011;44967;48.598;15.650;2023-12-04T12:39:01;36.22;;;16.83;;
59193;SDS011;44967;48.598;15.650;2023-12-04T12:41:29;30.23;;;13.95;;
59193;SDS011;44967;48.598;15.650;2023-12-04T12:43:56;29.45;;;14.90;;
59193;SDS011;44967;48.598;15.650;2023-12-04T12:46:22;30.48;;;15.88;;
59193;SDS011;44967;48.598;15.650;2023-12-04T12:48:48;36.03;;;16.10;;
59193;SDS011;44967;48.598;15.650;2023-12-04T12:51:13;28.05;;;13.80;;
59193;SDS011;44967;48.598;15.650;2023-12-04T12:53:39;37.67;;;15.75;;
59193;SDS011;44967;48.598;15.650;2023-12-04T12:56:06;36.65;;;15.20;;
59193;SDS011;44967;48.598;15.650;2023-12-04T12:58:33;36.00;;;14.93;;
59193;SDS011;44967;48.598;15.650;2023-12-04T13:01:00;32.90;;;15.80;;
59193;SDS011;44967;48.598;15.650;2023-12-04T13:03:26;31.65;;;16.55;;
59193;SDS011;44967;48.598;15.650;2023-12-04T13:05:57;29.98;;;15.20;;
59193;SDS011;44967;48.598;15.650;2023-12-04T13:08:23;38.13;;;15.73;;
59193;SDS011;44967;48.598;15.650;2023-12-04T13:10:48;37.20;;;16.75;;
59193;SDS011;44967;48.598;15.650;2023-12-04T13:13:15;35.45;;;14.82;;
59193;SDS011;44967;48.598;15.650;2023-12-04T13:15:41;32.95;;;15.40;;
59193;SDS011;44967;48.598;15.650;2023-12-04T13:18:08;30.98;;;14.63;;
59193;SDS011;44967;48.598;15.650;2023-12-04T13:20:34;32.38;;;16.55;;
59193;SDS011;44967;48.598;15.650;2023-12-04T13:23:01;35.15;;;17.13;;
59193;SDS011;44967;48.598;15.650;2023-12-04T13:25:27;32.22;;;16.65;;
59193;SDS011;44967;48.598;15.650;2023-12-04T13:27:53;40.38;;;16.92;;
59193;SDS011;44967;48.598;15.650;2023-12-04T13:30:20;35.97;;;17.10;;
59193;SDS011;44967;48.598;15.650;2023-12-04T13:32:45;34.38;;;16.10;;
59193;SDS011;44967;48.598;15.650;2023-12-04T13:35:12;33.83;;;15.52;;
59193;SDS011;44967;48.598;15.650;2023-12-04T13:37:39;31.92;;;15.98;;
59193;SDS011;44967;48.598;15.650;2023-12-04T13:40:05;32.90;;;15.45;;
59193;SDS011;44967;48.598;15.650;2023-12-04T13:45:25;30.40;;;15.40;;
59193;SDS011;44967;48.598;15.650;2023-12-04T13:47:50;34.22;;;16.95;;
59193;SDS011;44967;48.598;15.650;2023-12-04T13:50:16;31.88;;;15.85;;
59193;SDS011;44967;48.598;15.650;2023-12-04T13:52:42;30.67;;;14.77;;
59193;SDS011;44967;48.598;15.650;2023-12-04T13:55:09;30.70;;;15.38;;
59193;SDS011;44967;48.598;15.650;2023-12-04T13:57:45;32.47;;;16.27;;
59193;SDS011;44967;48.598;15.650;2023-12-04T14:00:21;32.65;;;15.25;;
59193;SDS011;44967;48.598;15.650;2023-12-04T14:02:47;30.83;;;15.23;;
59193;SDS011;44967;48.598;15.650;2023-12-04T14:05:12;30.33;;;15.90;;
59193;SDS011;44967;48.598;15.650;2023-12-04T14:07:41;29.83;;;15.30;;
59193;SDS011;44967;48.598;15.650;2023-12-04T14:10:09;29.90;;;14.45;;
59193;SDS011;44967;48.598;15.650;2023-12-04T14:12:35;31.83;;;15.98;;
59193;SDS011;44967;48.598;15.650;2023-12-04T14:15:16;26.88;;;15.30;;
59193;SDS011;44967;48.598;15.650;2023-12-04T14:18:01;29.85;;;15.48;;
59193;SDS011;44967;48.598;15.650;2023-12-04T14:20:27;36.20;;;16.73;;
59193;SDS011;44967;48.598;15.650;2023-12-04T14:22:52;30.52;;;16.25;;
59193;SDS011;44967;48.598;15.650;2023-12-04T14:28:11;25.40;;;13.50;;
59193;SDS011;44967;48.598;15.650;2023-12-04T14:30:46;29.20;;;14.95;;
59193;SDS011;44967;48.598;15.650;2023-12-04T14:33:12;35.42;;;14.73;;